1894 Hurricane NOT_NAMED (1894335N24307)


IBTrACS version v04r00. Visit IBTrACS website for data access.
Please direct all questions to the IBTrACS Q and A forum

Storm track - Intensity - Wind Radii - Intensity Data - Source Data - All data

Summary Information

Storm ID 1894335N24307
Start Nov 30 12Z
Max Intensity 65 kt (Dec 7 12Z)
End Dec 9 12Z
ATCF IDs
Track status Best track data.

Storm track plot

Map of storm track

Intensity plots

Map of storm track

Radial wind information

No radial wind information for this storm


Position and Intensity Table

BASIN ISO_TIME_________ NATURE LAT LON MLC WIND
degrees north degrees east kts
NA 1894-11-30 12:00:00 TS 23.50 -53.50 35
NA 15:00:00 TS 23.75 -52.89 37
NA 18:00:00 TS 24.00 -52.30 40
NA 21:00:00 TS 24.25 -51.74 40
NA 1894-12-01 00:00:00 TS 24.50 -51.20 40
NA 03:00:00 TS 24.75 -50.65 40
NA 06:00:00 TS 25.00 -50.10 40
NA 09:00:00 TS 25.34 -49.52 42
NA 12:00:00 TS 25.50 -49.00 45
NA 15:00:00 TS 25.23 -48.61 45
NA 18:00:00 TS 24.80 -48.30 45
NA 21:00:00 TS 24.49 -47.99 45
NA 1894-12-02 00:00:00 TS 24.20 -47.70 45
NA 03:00:00 TS 23.90 -47.40 45
NA 06:00:00 TS 23.60 -47.10 45
NA 09:00:00 TS 23.23 -46.78 45
NA 12:00:00 TS 23.00 -46.50 45
NA 15:00:00 TS 23.09 -46.33 45
NA 18:00:00 TS 23.30 -46.20 45
NA 21:00:00 TS 23.40 -46.05 45
NA 1894-12-03 00:00:00 TS 23.50 -45.90 45
NA 03:00:00 TS 23.65 -45.75 45
NA 06:00:00 TS 23.80 -45.60 45
NA 09:00:00 TS 23.90 -45.45 45
NA 12:00:00 TS 24.00 -45.30 45
NA 15:00:00 TS 24.15 -45.15 45
NA 18:00:00 TS 24.30 -45.00 45
NA 21:00:00 TS 24.40 -44.86 45
NA 1894-12-04 00:00:00 TS 24.50 -44.70 45
NA 03:00:00 TS 24.65 -44.50 45
NA 06:00:00 TS 24.80 -44.30 45
NA 09:00:00 TS 24.92 -44.16 47
NA 12:00:00 TS 25.00 -44.00 50
NA 15:00:00 TS 25.02 -43.76 50
NA 18:00:00 TS 25.00 -43.50 50
NA 21:00:00 TS 25.00 -43.30 50
NA 1894-12-05 00:00:00 TS 25.00 -43.10 50
NA 03:00:00 TS 25.00 -42.85 50
NA 06:00:00 TS 25.00 -42.60 50
NA 09:00:00 TS 24.98 -42.43 50
NA 12:00:00 TS 25.00 -42.20 50
NA 15:00:00 TS 25.13 -41.79 50
NA 18:00:00 TS 25.30 -41.30 50
NA 21:00:00 TS 25.45 -40.85 50
NA 1894-12-06 00:00:00 TS 25.60 -40.40 50
NA 03:00:00 TS 25.75 -39.96 50
NA 06:00:00 TS 25.90 -39.50 50
NA 09:00:00 TS 25.98 -39.07 50
NA 12:00:00 TS 26.20 -38.50 50
NA 15:00:00 TS 26.73 -37.65 52
NA 18:00:00 TS 27.40 -36.70 55
NA 21:00:00 TS 28.00 -35.85 57
NA 1894-12-07 00:00:00 TS 28.60 -35.00 60
NA 03:00:00 TS 29.20 -34.10 60
NA 06:00:00 TS 29.80 -33.20 60
NA 09:00:00 TS 30.30 -32.43 62
NA 12:00:00 TS 31.00 -31.50 65
NA 15:00:00 TS 32.16 -30.03 65
NA 18:00:00 TS 33.50 -28.50 65
NA 21:00:00 TS 34.71 -27.38 65
NA 1894-12-08 00:00:00 TS 35.90 -26.50 65
NA 03:00:00 TS 37.06 -25.71 65
NA 06:00:00 ET 38.20 -25.00 65
NA 09:00:00 ET 39.29 -24.28 62
NA 12:00:00 ET 40.50 -23.50 60
NA 15:00:00 ET 41.99 -22.57 57
NA 18:00:00 ET 43.60 -21.50 55
NA 21:00:00 ET 45.14 -20.22 55
NA 1894-12-09 00:00:00 ET 46.70 -19.00 55
NA 03:00:00 ET 48.35 -18.18 52
NA 06:00:00 ET 50.00 -17.40 50
NA 09:00:00 ET 51.54 -16.33 50
NA 12:00:00 ET 53.00 -15.00 50

Source Information

Agency Information
USA
TOKYO
CMA
HKO
NEWDELHI
REUNION
BOM
NADI
WELLINGTON
DS824
TD9636
TD9635
NEUMANN
MLC

All available IBTrACS Data

SEASON BASIN SUBBASIN ISO_TIME_________ NATURE LAT LON DIST2LAND LANDFALL IFLAG USA SSHS MLC LAT MLC LON MLC CLASS MLC WIND STORM SPEED STORM DIR
Year degrees north degrees east km km 1 degrees north degrees east kts kts degrees
1894 NA NA 1894-11-30 12:00:00 TS 23.50 -53.50 1378 1378 _____________O -1 23.50 -53.50 TS 35 12 66
1894 NA NA 15:00:00 TS 23.75 -52.89 1448 1448 _____________P -1 23.75 -52.89 TS 37 12 66
1894 NA NA 18:00:00 TS 24.00 -52.30 1512 1512 _____________O -1 24.00 -52.30 TS 40 12 65
1894 NA NA 21:00:00 TS 24.25 -51.74 1577 1577 _____________P -1 24.25 -51.74 TS 40 11 64
1894 NA NA 1894-12-01 00:00:00 TS 24.50 -51.20 1637 1637 _____________O -1 24.50 -51.20 TS 40 11 63
1894 NA NA 03:00:00 TS 24.75 -50.65 1701 1701 _____________P -1 24.75 -50.65 TS 40 11 63
1894 NA NA 06:00:00 TS 25.00 -50.10 1761 1761 _____________O -1 25.00 -50.10 TS 40 12 60
1894 NA NA 09:00:00 TS 25.34 -49.52 1829 1829 _____________P -1 25.34 -49.52 TS 42 11 63
1894 NA NA 12:00:00 TS 25.50 -49.00 1884 1884 _____________O -1 25.50 -49.00 TS 45 8 97
1894 NA NA 15:00:00 TS 25.23 -48.61 1910 1910 _____________P -1 25.23 -48.61 TS 45 9 138
1894 NA NA 18:00:00 TS 24.80 -48.30 1923 1923 _____________O -1 24.80 -48.30 TS 45 9 143
1894 NA NA 21:00:00 TS 24.49 -47.99 1942 1942 _____________P -1 24.49 -47.99 TS 45 8 138
1894 NA NA 1894-12-02 00:00:00 TS 24.20 -47.70 1962 1962 _____________O -1 24.20 -47.70 TS 45 8 138
1894 NA NA 03:00:00 TS 23.90 -47.40 1982 1982 _____________P -1 23.90 -47.40 TS 45 8 138
1894 NA NA 06:00:00 TS 23.60 -47.10 2004 2004 _____________O -1 23.60 -47.10 TS 45 9 139
1894 NA NA 09:00:00 TS 23.23 -46.78 2024 2024 _____________P -1 23.23 -46.78 TS 45 8 137
1894 NA NA 12:00:00 TS 23.00 -46.50 2050 2050 _____________O -1 23.00 -46.50 TS 45 4 109
1894 NA NA 15:00:00 TS 23.09 -46.33 2072 2072 _____________P -1 23.09 -46.33 TS 45 4 43
1894 NA NA 18:00:00 TS 23.30 -46.20 2086 2086 _____________O -1 23.30 -46.20 TS 45 4 39
1894 NA NA 21:00:00 TS 23.40 -46.05 2108 2108 _____________P -1 23.40 -46.05 TS 45 3 54
1894 NA NA 1894-12-03 00:00:00 TS 23.50 -45.90 2121 2121 _____________O -1 23.50 -45.90 TS 45 4 48
1894 NA NA 03:00:00 TS 23.65 -45.75 2133 2133 _____________P -1 23.65 -45.75 TS 45 4 42
1894 NA NA 06:00:00 TS 23.80 -45.60 2158 2158 _____________O -1 23.80 -45.60 TS 45 4 48
1894 NA NA 09:00:00 TS 23.90 -45.45 2180 2180 _____________P -1 23.90 -45.45 TS 45 3 54
1894 NA NA 12:00:00 TS 24.00 -45.30 2192 2192 _____________O -1 24.00 -45.30 TS 45 4 48
1894 NA NA 15:00:00 TS 24.15 -45.15 2205 2205 _____________P -1 24.15 -45.15 TS 45 4 42
1894 NA NA 18:00:00 TS 24.30 -45.00 2229 2229 _____________O -1 24.30 -45.00 TS 45 4 47
1894 NA NA 21:00:00 TS 24.40 -44.86 2242 2242 _____________P -1 24.40 -44.86 TS 45 3 54
1894 NA NA 1894-12-04 00:00:00 TS 24.50 -44.70 2264 2264 _____________O -1 24.50 -44.70 TS 45 4 53
1894 NA NA 03:00:00 TS 24.65 -44.50 2289 2289 _____________P -1 24.65 -44.50 TS 45 5 50
1894 NA NA 06:00:00 TS 24.80 -44.30 2311 2311 _____________O -1 24.80 -44.30 TS 45 4 49
1894 NA NA 09:00:00 TS 24.92 -44.16 2324 2324 _____________P -1 24.92 -44.16 TS 47 3 54
1894 NA NA 12:00:00 TS 25.00 -44.00 2346 2346 _____________O -1 25.00 -44.00 TS 50 4 76
1894 NA NA 15:00:00 TS 25.02 -43.76 2365 2365 _____________P -1 25.02 -43.76 TS 50 5 90
1894 NA NA 18:00:00 TS 25.00 -43.50 2395 2395 _____________O -1 25.00 -43.50 TS 50 4 92
1894 NA NA 21:00:00 TS 25.00 -43.30 2414 2414 _____________P -1 25.00 -43.30 TS 50 4 90
1894 NA NA 1894-12-05 00:00:00 TS 25.00 -43.10 2434 2434 _____________O -1 25.00 -43.10 TS 50 4 90
1894 NA NA 03:00:00 TS 25.00 -42.85 2449 2449 _____________P -1 25.00 -42.85 TS 50 5 90
1894 NA NA 06:00:00 TS 25.00 -42.60 2458 2458 _____________O -1 25.00 -42.60 TS 50 4 93
1894 NA NA 09:00:00 TS 24.98 -42.43 2468 2468 _____________P -1 24.98 -42.43 TS 50 4 90
1894 NA NA 12:00:00 TS 25.00 -42.20 2477 2477 _____________O -1 25.00 -42.20 TS 50 6 75
1894 NA NA 15:00:00 TS 25.13 -41.79 2501 2447 _____________P -1 25.13 -41.79 TS 50 9 70
1894 NA NA 18:00:00 TS 25.30 -41.30 2447 2406 _____________O -1 25.30 -41.30 TS 50 9 69
1894 NA NA 21:00:00 TS 25.45 -40.85 2396 2352 _____________P -1 25.45 -40.85 TS 50 9 70
1894 NA NA 1894-12-06 00:00:00 TS 25.60 -40.40 2352 2310 _____________O -1 25.60 -40.40 TS 50 9 70
1894 NA NA 03:00:00 TS 25.75 -39.96 2310 2257 _____________P -1 25.75 -39.96 TS 50 9 70
1894 NA NA 06:00:00 TS 25.90 -39.50 2257 2215 _____________O -1 25.90 -39.50 TS 50 8 74
1894 NA NA 09:00:00 TS 25.98 -39.07 2215 2152 _____________P -1 25.98 -39.07 TS 50 9 72
1894 NA NA 12:00:00 TS 26.20 -38.50 2152 2064 _____________O -1 26.20 -38.50 TS 50 15 59
1894 NA NA 15:00:00 TS 26.73 -37.65 2064 1964 _____________P -1 26.73 -37.65 TS 52 20 53
1894 NA NA 18:00:00 TS 27.40 -36.70 1954 1868 _____________O -1 27.40 -36.70 TS 55 20 52
1894 NA NA 21:00:00 TS 28.00 -35.85 1859 1775 _____________P -1 28.00 -35.85 TS 57 19 51
1894 NA NA 1894-12-07 00:00:00 TS 28.60 -35.00 1775 1685 _____________O -1 28.60 -35.00 TS 60 20 52
1894 NA NA 03:00:00 TS 29.20 -34.10 1685 1599 _____________P -1 29.20 -34.10 TS 60 20 53
1894 NA NA 06:00:00 TS 29.80 -33.20 1599 1534 _____________O -1 29.80 -33.20 TS 60 18 53
1894 NA NA 09:00:00 TS 30.30 -32.43 1525 1456 _____________P -1 30.30 -32.43 TS 62 19 51
1894 NA NA 12:00:00 TS 31.00 -31.50 1449 1343 _____________O -1 31.00 -31.50 HU 65 28 48
1894 NA NA 15:00:00 TS 32.16 -30.03 1337 1259 _____________P -1 32.16 -30.03 HU 65 36 45
1894 NA NA 18:00:00 TS 33.50 -28.50 1255 1224 _____________O -1 33.50 -28.50 HU 65 34 41
1894 NA NA 21:00:00 TS 34.71 -27.38 1230 1225 _____________P -1 34.71 -27.38 HU 65 29 34
1894 NA NA 1894-12-08 00:00:00 TS 35.90 -26.50 1243 1243 _____________O -1 35.90 -26.50 HU 65 27 30
1894 NA NA 03:00:00 TS 37.06 -25.71 1284 1284 _____________P -1 37.06 -25.71 HU 65 26 27
1894 NA NA 06:00:00 ET 38.20 -25.00 1339 1274 _____________O -1 38.20 -25.00 EX 65 25 27
1894 NA NA 09:00:00 ET 39.29 -24.28 1274 1206 _____________P -1 39.29 -24.28 EX 62 26 27
1894 NA NA 12:00:00 ET 40.50 -23.50 1203 1092 _____________O -1 40.50 -23.50 EX 60 30 26
1894 NA NA 15:00:00 ET 41.99 -22.57 1090 993 _____________P -1 41.99 -22.57 EX 57 34 26
1894 NA NA 18:00:00 ET 43.60 -21.50 985 905 _____________O -1 43.60 -21.50 EX 55 36 28
1894 NA NA 21:00:00 ET 45.14 -20.22 897 849 _____________P -1 45.14 -20.22 EX 55 36 30
1894 NA NA 1894-12-09 00:00:00 ET 46.70 -19.00 836 676 _____________O -1 46.70 -19.00 EX 55 35 24
1894 NA NA 03:00:00 ET 48.35 -18.18 669 532 _____________P -1 48.35 -18.18 EX 52 35 18
1894 NA NA 06:00:00 ET 50.00 -17.40 527 408 _____________O -1 50.00 -17.40 EX 50 34 20
1894 NA NA 09:00:00 ET 51.54 -16.33 402 322 _____________P -1 51.54 -16.33 EX 50 33 26
1894 NA NA 12:00:00 ET 53.00 -15.00 318 _____________O -1 53.00 -15.00 EX 50 33 29